sensor_id;sensor_type;location;lat;lon;timestamp;P1;durP1;ratioP1;P2;durP2;ratioP2
33810;SDS011;20119;48.334;16.206;2023-04-25T00:02:21;7.63;;;6.00;;
33810;SDS011;20119;48.334;16.206;2023-04-25T00:04:50;6.25;;;5.65;;
33810;SDS011;20119;48.334;16.206;2023-04-25T00:07:18;6.50;;;5.32;;
33810;SDS011;20119;48.334;16.206;2023-04-25T00:09:46;6.00;;;5.40;;
33810;SDS011;20119;48.334;16.206;2023-04-25T00:12:13;6.85;;;5.45;;
33810;SDS011;20119;48.334;16.206;2023-04-25T00:14:40;7.03;;;5.55;;
33810;SDS011;20119;48.334;16.206;2023-04-25T00:17:12;6.57;;;5.97;;
33810;SDS011;20119;48.334;16.206;2023-04-25T00:19:39;7.55;;;5.57;;
33810;SDS011;20119;48.334;16.206;2023-04-25T00:22:07;6.20;;;5.60;;
33810;SDS011;20119;48.334;16.206;2023-04-25T00:24:35;6.28;;;5.68;;
33810;SDS011;20119;48.334;16.206;2023-04-25T00:27:03;7.40;;;5.75;;
33810;SDS011;20119;48.334;16.206;2023-04-25T00:29:30;7.32;;;5.90;;
33810;SDS011;20119;48.334;16.206;2023-04-25T00:31:59;6.82;;;6.22;;
33810;SDS011;20119;48.334;16.206;2023-04-25T00:34:28;8.48;;;5.95;;
33810;SDS011;20119;48.334;16.206;2023-04-25T00:36:55;7.10;;;6.40;;
33810;SDS011;20119;48.334;16.206;2023-04-25T00:39:23;6.68;;;6.03;;
33810;SDS011;20119;48.334;16.206;2023-04-25T00:41:51;7.85;;;6.65;;
33810;SDS011;20119;48.334;16.206;2023-04-25T00:44:21;7.38;;;6.68;;
33810;SDS011;20119;48.334;16.206;2023-04-25T00:46:49;9.80;;;6.75;;
33810;SDS011;20119;48.334;16.206;2023-04-25T00:49:18;8.07;;;6.30;;
33810;SDS011;20119;48.334;16.206;2023-04-25T00:51:48;7.90;;;6.60;;
33810;SDS011;20119;48.334;16.206;2023-04-25T00:54:15;7.60;;;6.75;;
33810;SDS011;20119;48.334;16.206;2023-04-25T00:56:44;8.15;;;6.90;;
33810;SDS011;20119;48.334;16.206;2023-04-25T00:59:12;7.15;;;6.25;;
33810;SDS011;20119;48.334;16.206;2023-04-25T01:01:41;7.57;;;6.63;;
33810;SDS011;20119;48.334;16.206;2023-04-25T01:04:09;8.45;;;6.88;;
33810;SDS011;20119;48.334;16.206;2023-04-25T01:06:37;8.32;;;6.90;;
33810;SDS011;20119;48.334;16.206;2023-04-25T01:09:06;9.68;;;7.25;;
33810;SDS011;20119;48.334;16.206;2023-04-25T01:11:35;8.20;;;7.28;;
33810;SDS011;20119;48.334;16.206;2023-04-25T01:14:02;7.97;;;7.18;;
33810;SDS011;20119;48.334;16.206;2023-04-25T01:16:29;9.02;;;7.55;;
33810;SDS011;20119;48.334;16.206;2023-04-25T01:18:58;8.18;;;7.38;;
33810;SDS011;20119;48.334;16.206;2023-04-25T01:21:28;8.10;;;7.30;;
33810;SDS011;20119;48.334;16.206;2023-04-25T01:23:57;7.63;;;6.82;;
33810;SDS011;20119;48.334;16.206;2023-04-25T01:26:24;9.60;;;7.28;;
33810;SDS011;20119;48.334;16.206;2023-04-25T01:28:52;8.35;;;6.90;;
33810;SDS011;20119;48.334;16.206;2023-04-25T01:31:20;8.88;;;7.13;;
33810;SDS011;20119;48.334;16.206;2023-04-25T01:33:47;8.25;;;7.20;;
33810;SDS011;20119;48.334;16.206;2023-04-25T01:36:15;13.07;;;7.40;;
33810;SDS011;20119;48.334;16.206;2023-04-25T01:38:45;10.05;;;7.47;;
33810;SDS011;20119;48.334;16.206;2023-04-25T01:41:13;8.77;;;7.80;;
33810;SDS011;20119;48.334;16.206;2023-04-25T01:43:42;9.60;;;7.72;;
33810;SDS011;20119;48.334;16.206;2023-04-25T01:46:11;8.23;;;7.40;;
33810;SDS011;20119;48.334;16.206;2023-04-25T01:48:39;8.45;;;7.13;;
33810;SDS011;20119;48.334;16.206;2023-04-25T01:51:06;8.43;;;7.55;;
33810;SDS011;20119;48.334;16.206;2023-04-25T01:53:36;9.20;;;8.00;;
33810;SDS011;20119;48.334;16.206;2023-04-25T01:56:06;8.15;;;7.35;;
33810;SDS011;20119;48.334;16.206;2023-04-25T01:58:34;10.00;;;7.40;;
33810;SDS011;20119;48.334;16.206;2023-04-25T02:01:02;8.57;;;7.72;;
33810;SDS011;20119;48.334;16.206;2023-04-25T02:03:30;9.52;;;7.40;;
33810;SDS011;20119;48.334;16.206;2023-04-25T02:05:57;8.10;;;7.30;;
33810;SDS011;20119;48.334;16.206;2023-04-25T02:08:25;10.05;;;7.80;;
33810;SDS011;20119;48.334;16.206;2023-04-25T02:10:52;8.35;;;7.53;;
33810;SDS011;20119;48.334;16.206;2023-04-25T02:13:22;8.85;;;7.15;;
33810;SDS011;20119;48.334;16.206;2023-04-25T02:15:49;8.23;;;7.05;;
33810;SDS011;20119;48.334;16.206;2023-04-25T02:18:17;8.23;;;6.85;;
33810;SDS011;20119;48.334;16.206;2023-04-25T02:20:46;7.72;;;6.93;;
33810;SDS011;20119;48.334;16.206;2023-04-25T02:23:13;8.00;;;6.97;;
33810;SDS011;20119;48.334;16.206;2023-04-25T02:25:41;7.57;;;6.82;;
33810;SDS011;20119;48.334;16.206;2023-04-25T02:28:10;6.70;;;6.10;;
33810;SDS011;20119;48.334;16.206;2023-04-25T02:30:40;7.75;;;6.90;;
33810;SDS011;20119;48.334;16.206;2023-04-25T02:33:07;8.98;;;7.28;;
33810;SDS011;20119;48.334;16.206;2023-04-25T02:35:35;7.95;;;7.07;;
33810;SDS011;20119;48.334;16.206;2023-04-25T02:38:03;9.27;;;7.32;;
33810;SDS011;20119;48.334;16.206;2023-04-25T02:40:30;9.27;;;7.07;;
33810;SDS011;20119;48.334;16.206;2023-04-25T02:42:58;8.63;;;7.38;;
33810;SDS011;20119;48.334;16.206;2023-04-25T02:45:26;9.98;;;7.30;;
33810;SDS011;20119;48.334;16.206;2023-04-25T02:47:56;10.23;;;7.30;;
33810;SDS011;20119;48.334;16.206;2023-04-25T02:50:23;8.20;;;6.95;;
33810;SDS011;20119;48.334;16.206;2023-04-25T02:53:07;12.68;;;7.60;;
33810;SDS011;20119;48.334;16.206;2023-04-25T02:55:35;8.35;;;7.50;;
33810;SDS011;20119;48.334;16.206;2023-04-25T02:58:04;9.43;;;7.50;;
33810;SDS011;20119;48.334;16.206;2023-04-25T03:00:32;8.52;;;7.47;;
33810;SDS011;20119;48.334;16.206;2023-04-25T03:03:02;8.20;;;7.40;;
33810;SDS011;20119;48.334;16.206;2023-04-25T03:05:29;9.38;;;7.50;;
33810;SDS011;20119;48.334;16.206;2023-04-25T03:07:57;8.25;;;7.45;;
33810;SDS011;20119;48.334;16.206;2023-04-25T03:10:25;10.50;;;7.72;;
33810;SDS011;20119;48.334;16.206;2023-04-25T03:12:56;9.88;;;7.53;;
33810;SDS011;20119;48.334;16.206;2023-04-25T03:15:24;8.40;;;7.32;;
33810;SDS011;20119;48.334;16.206;2023-04-25T03:17:52;8.63;;;7.72;;
33810;SDS011;20119;48.334;16.206;2023-04-25T03:20:23;9.48;;;7.30;;
33810;SDS011;20119;48.334;16.206;2023-04-25T03:22:51;8.60;;;7.70;;
33810;SDS011;20119;48.334;16.206;2023-04-25T03:25:19;7.95;;;7.00;;
33810;SDS011;20119;48.334;16.206;2023-04-25T03:27:47;9.32;;;7.40;;
33810;SDS011;20119;48.334;16.206;2023-04-25T03:30:13;8.35;;;7.40;;
33810;SDS011;20119;48.334;16.206;2023-04-25T03:32:41;8.57;;;7.35;;
33810;SDS011;20119;48.334;16.206;2023-04-25T03:35:08;8.88;;;7.93;;
33810;SDS011;20119;48.334;16.206;2023-04-25T03:37:37;9.05;;;7.88;;
33810;SDS011;20119;48.334;16.206;2023-04-25T03:40:06;10.45;;;7.93;;
33810;SDS011;20119;48.334;16.206;2023-04-25T03:42:34;11.07;;;7.93;;
33810;SDS011;20119;48.334;16.206;2023-04-25T03:45:02;9.15;;;8.10;;
33810;SDS011;20119;48.334;16.206;2023-04-25T03:47:30;10.93;;;8.60;;
33810;SDS011;20119;48.334;16.206;2023-04-25T03:49:58;9.85;;;8.73;;
33810;SDS011;20119;48.334;16.206;2023-04-25T03:52:27;9.93;;;8.93;;
33810;SDS011;20119;48.334;16.206;2023-04-25T03:54:56;9.75;;;8.75;;
33810;SDS011;20119;48.334;16.206;2023-04-25T03:57:23;10.95;;;9.23;;
33810;SDS011;20119;48.334;16.206;2023-04-25T03:59:51;10.18;;;9.13;;
33810;SDS011;20119;48.334;16.206;2023-04-25T04:02:18;11.73;;;9.57;;
33810;SDS011;20119;48.334;16.206;2023-04-25T04:04:46;10.68;;;9.38;;
33810;SDS011;20119;48.334;16.206;2023-04-25T04:07:14;11.32;;;9.35;;
33810;SDS011;20119;48.334;16.206;2023-04-25T04:09:41;12.35;;;9.77;;
33810;SDS011;20119;48.334;16.206;2023-04-25T04:12:10;12.23;;;9.88;;
33810;SDS011;20119;48.334;16.206;2023-04-25T04:14:38;12.68;;;10.45;;
33810;SDS011;20119;48.334;16.206;2023-04-25T04:17:06;12.65;;;10.52;;
33810;SDS011;20119;48.334;16.206;2023-04-25T04:19:33;13.55;;;10.13;;
33810;SDS011;20119;48.334;16.206;2023-04-25T04:22:02;11.50;;;9.95;;
33810;SDS011;20119;48.334;16.206;2023-04-25T04:24:29;12.90;;;10.00;;
33810;SDS011;20119;48.334;16.206;2023-04-25T04:26:56;13.75;;;10.73;;
33810;SDS011;20119;48.334;16.206;2023-04-25T04:29:25;13.05;;;10.88;;
33810;SDS011;20119;48.334;16.206;2023-04-25T04:31:52;13.48;;;10.80;;
33810;SDS011;20119;48.334;16.206;2023-04-25T04:34:19;13.05;;;10.82;;
33810;SDS011;20119;48.334;16.206;2023-04-25T04:36:46;12.82;;;11.30;;
33810;SDS011;20119;48.334;16.206;2023-04-25T04:39:14;14.38;;;11.65;;
33810;SDS011;20119;48.334;16.206;2023-04-25T04:41:42;14.50;;;11.35;;
33810;SDS011;20119;48.334;16.206;2023-04-25T04:44:10;16.83;;;12.63;;
33810;SDS011;20119;48.334;16.206;2023-04-25T04:46:39;14.23;;;11.60;;
33810;SDS011;20119;48.334;16.206;2023-04-25T04:49:07;15.98;;;12.30;;
33810;SDS011;20119;48.334;16.206;2023-04-25T04:51:34;13.80;;;12.23;;
33810;SDS011;20119;48.334;16.206;2023-04-25T04:54:02;13.50;;;12.02;;
33810;SDS011;20119;48.334;16.206;2023-04-25T04:56:31;15.07;;;12.50;;
33810;SDS011;20119;48.334;16.206;2023-04-25T04:58:58;14.02;;;12.30;;
33810;SDS011;20119;48.334;16.206;2023-04-25T05:01:27;14.95;;;12.15;;
33810;SDS011;20119;48.334;16.206;2023-04-25T05:03:56;13.80;;;12.32;;
33810;SDS011;20119;48.334;16.206;2023-04-25T05:06:25;14.15;;;12.65;;
33810;SDS011;20119;48.334;16.206;2023-04-25T05:08:54;14.18;;;12.40;;
33810;SDS011;20119;48.334;16.206;2023-04-25T05:11:21;14.30;;;11.75;;
33810;SDS011;20119;48.334;16.206;2023-04-25T05:13:49;14.73;;;11.45;;
33810;SDS011;20119;48.334;16.206;2023-04-25T05:16:20;15.40;;;11.75;;
33810;SDS011;20119;48.334;16.206;2023-04-25T05:18:47;13.02;;;11.73;;
33810;SDS011;20119;48.334;16.206;2023-04-25T05:21:16;13.77;;;11.10;;
33810;SDS011;20119;48.334;16.206;2023-04-25T05:23:43;12.57;;;10.13;;
33810;SDS011;20119;48.334;16.206;2023-04-25T05:26:10;10.48;;;9.38;;
33810;SDS011;20119;48.334;16.206;2023-04-25T05:28:39;11.68;;;8.70;;
33810;SDS011;20119;48.334;16.206;2023-04-25T05:31:07;8.77;;;7.30;;
33810;SDS011;20119;48.334;16.206;2023-04-25T05:33:38;10.00;;;7.65;;
33810;SDS011;20119;48.334;16.206;2023-04-25T05:36:06;8.25;;;6.68;;
33810;SDS011;20119;48.334;16.206;2023-04-25T05:38:35;7.35;;;6.65;;
33810;SDS011;20119;48.334;16.206;2023-04-25T05:41:04;8.73;;;6.15;;
33810;SDS011;20119;48.334;16.206;2023-04-25T05:43:31;7.25;;;5.90;;
33810;SDS011;20119;48.334;16.206;2023-04-25T05:45:58;6.85;;;5.88;;
33810;SDS011;20119;48.334;16.206;2023-04-25T05:48:26;6.07;;;5.47;;
33810;SDS011;20119;48.334;16.206;2023-04-25T05:50:53;6.70;;;5.40;;
33810;SDS011;20119;48.334;16.206;2023-04-25T05:53:21;6.70;;;5.57;;
33810;SDS011;20119;48.334;16.206;2023-04-25T05:55:49;6.18;;;5.25;;
33810;SDS011;20119;48.334;16.206;2023-04-25T05:58:18;8.20;;;5.50;;
33810;SDS011;20119;48.334;16.206;2023-04-25T06:00:45;5.38;;;4.88;;
33810;SDS011;20119;48.334;16.206;2023-04-25T06:03:12;7.38;;;5.00;;
33810;SDS011;20119;48.334;16.206;2023-04-25T06:05:40;10.00;;;5.32;;
33810;SDS011;20119;48.334;16.206;2023-04-25T06:08:08;7.22;;;5.43;;
33810;SDS011;20119;48.334;16.206;2023-04-25T06:10:37;6.70;;;5.00;;
33810;SDS011;20119;48.334;16.206;2023-04-25T06:13:07;6.38;;;5.30;;
33810;SDS011;20119;48.334;16.206;2023-04-25T06:15:35;6.13;;;5.28;;
33810;SDS011;20119;48.334;16.206;2023-04-25T06:18:02;6.65;;;5.35;;
33810;SDS011;20119;48.334;16.206;2023-04-25T06:20:29;6.25;;;5.22;;
33810;SDS011;20119;48.334;16.206;2023-04-25T06:22:57;6.40;;;5.32;;
33810;SDS011;20119;48.334;16.206;2023-04-25T06:25:25;6.38;;;5.22;;
33810;SDS011;20119;48.334;16.206;2023-04-25T06:27:52;6.70;;;5.25;;
33810;SDS011;20119;48.334;16.206;2023-04-25T06:30:22;6.30;;;5.28;;
33810;SDS011;20119;48.334;16.206;2023-04-25T06:32:50;8.60;;;5.27;;
33810;SDS011;20119;48.334;16.206;2023-04-25T06:35:18;5.82;;;5.20;;
33810;SDS011;20119;48.334;16.206;2023-04-25T06:37:45;5.85;;;5.32;;
33810;SDS011;20119;48.334;16.206;2023-04-25T06:40:13;7.65;;;5.30;;
33810;SDS011;20119;48.334;16.206;2023-04-25T06:42:42;5.75;;;5.00;;
33810;SDS011;20119;48.334;16.206;2023-04-25T06:45:10;4.95;;;4.22;;
33810;SDS011;20119;48.334;16.206;2023-04-25T06:47:39;5.75;;;4.38;;
33810;SDS011;20119;48.334;16.206;2023-04-25T06:50:06;6.57;;;4.38;;
33810;SDS011;20119;48.334;16.206;2023-04-25T06:52:34;6.35;;;4.45;;
33810;SDS011;20119;48.334;16.206;2023-04-25T06:55:02;6.68;;;4.30;;
33810;SDS011;20119;48.334;16.206;2023-04-25T06:57:30;4.38;;;3.42;;
33810;SDS011;20119;48.334;16.206;2023-04-25T06:59:58;4.43;;;3.60;;
33810;SDS011;20119;48.334;16.206;2023-04-25T07:02:27;3.63;;;3.33;;
33810;SDS011;20119;48.334;16.206;2023-04-25T07:04:56;4.40;;;3.20;;
33810;SDS011;20119;48.334;16.206;2023-04-25T07:07:24;4.00;;;3.40;;
33810;SDS011;20119;48.334;16.206;2023-04-25T07:09:52;4.22;;;3.25;;
33810;SDS011;20119;48.334;16.206;2023-04-25T07:12:20;4.75;;;3.05;;
33810;SDS011;20119;48.334;16.206;2023-04-25T07:14:49;5.38;;;3.85;;
33810;SDS011;20119;48.334;16.206;2023-04-25T07:17:16;4.97;;;3.58;;
33810;SDS011;20119;48.334;16.206;2023-04-25T07:19:44;3.58;;;3.20;;
33810;SDS011;20119;48.334;16.206;2023-04-25T07:22:14;4.03;;;3.05;;
33810;SDS011;20119;48.334;16.206;2023-04-25T07:24:41;3.90;;;2.60;;
33810;SDS011;20119;48.334;16.206;2023-04-25T07:27:12;4.55;;;2.58;;
33810;SDS011;20119;48.334;16.206;2023-04-25T07:29:39;2.97;;;2.50;;
33810;SDS011;20119;48.334;16.206;2023-04-25T07:32:07;2.80;;;2.50;;
33810;SDS011;20119;48.334;16.206;2023-04-25T07:34:37;4.65;;;2.72;;
33810;SDS011;20119;48.334;16.206;2023-04-25T07:37:04;2.70;;;2.50;;
33810;SDS011;20119;48.334;16.206;2023-04-25T07:39:33;2.83;;;2.50;;
33810;SDS011;20119;48.334;16.206;2023-04-25T07:42:02;2.90;;;2.40;;
33810;SDS011;20119;48.334;16.206;2023-04-25T07:44:33;3.20;;;2.80;;
33810;SDS011;20119;48.334;16.206;2023-04-25T07:47:04;2.90;;;2.60;;
33810;SDS011;20119;48.334;16.206;2023-04-25T07:49:33;2.92;;;2.60;;
33810;SDS011;20119;48.334;16.206;2023-04-25T07:52:01;3.42;;;2.70;;
33810;SDS011;20119;48.334;16.206;2023-04-25T07:54:30;3.33;;;2.70;;
33810;SDS011;20119;48.334;16.206;2023-04-25T07:56:59;3.42;;;2.58;;
33810;SDS011;20119;48.334;16.206;2023-04-25T07:59:27;4.20;;;2.38;;
33810;SDS011;20119;48.334;16.206;2023-04-25T08:01:54;4.35;;;2.70;;
33810;SDS011;20119;48.334;16.206;2023-04-25T08:04:23;3.05;;;2.70;;
33810;SDS011;20119;48.334;16.206;2023-04-25T08:06:52;3.58;;;2.50;;
33810;SDS011;20119;48.334;16.206;2023-04-25T08:09:21;3.55;;;2.65;;
33810;SDS011;20119;48.334;16.206;2023-04-25T08:11:50;12.93;;;4.25;;
33810;SDS011;20119;48.334;16.206;2023-04-25T08:14:19;6.30;;;3.20;;
33810;SDS011;20119;48.334;16.206;2023-04-25T08:16:47;4.85;;;2.67;;
33810;SDS011;20119;48.334;16.206;2023-04-25T08:19:15;3.92;;;3.17;;
33810;SDS011;20119;48.334;16.206;2023-04-25T08:21:42;4.18;;;3.40;;
33810;SDS011;20119;48.334;16.206;2023-04-25T08:24:09;6.82;;;3.58;;
33810;SDS011;20119;48.334;16.206;2023-04-25T08:26:37;5.57;;;3.65;;
33810;SDS011;20119;48.334;16.206;2023-04-25T08:29:06;4.30;;;3.17;;
33810;SDS011;20119;48.334;16.206;2023-04-25T08:31:36;4.78;;;3.42;;
33810;SDS011;20119;48.334;16.206;2023-04-25T08:34:03;4.38;;;3.40;;
33810;SDS011;20119;48.334;16.206;2023-04-25T08:36:31;3.30;;;3.00;;
33810;SDS011;20119;48.334;16.206;2023-04-25T08:38:59;3.53;;;3.20;;
33810;SDS011;20119;48.334;16.206;2023-04-25T08:41:26;5.32;;;2.80;;
33810;SDS011;20119;48.334;16.206;2023-04-25T08:43:54;3.25;;;2.83;;
33810;SDS011;20119;48.334;16.206;2023-04-25T08:46:25;3.47;;;3.00;;
33810;SDS011;20119;48.334;16.206;2023-04-25T08:48:58;3.25;;;2.95;;
33810;SDS011;20119;48.334;16.206;2023-04-25T08:51:30;3.67;;;3.03;;
33810;SDS011;20119;48.334;16.206;2023-04-25T08:54:01;3.30;;;2.92;;
33810;SDS011;20119;48.334;16.206;2023-04-25T08:56:35;3.47;;;2.70;;
33810;SDS011;20119;48.334;16.206;2023-04-25T08:59:03;3.00;;;2.70;;
33810;SDS011;20119;48.334;16.206;2023-04-25T09:01:33;5.18;;;3.10;;
33810;SDS011;20119;48.334;16.206;2023-04-25T09:04:03;2.85;;;2.60;;
33810;SDS011;20119;48.334;16.206;2023-04-25T09:06:30;3.17;;;2.88;;
33810;SDS011;20119;48.334;16.206;2023-04-25T09:09:01;4.23;;;2.90;;
33810;SDS011;20119;48.334;16.206;2023-04-25T09:11:31;3.13;;;2.80;;
33810;SDS011;20119;48.334;16.206;2023-04-25T09:14:14;3.13;;;2.63;;
33810;SDS011;20119;48.334;16.206;2023-04-25T09:16:59;3.10;;;2.72;;
33810;SDS011;20119;48.334;16.206;2023-04-25T09:19:29;2.78;;;2.58;;
33810;SDS011;20119;48.334;16.206;2023-04-25T09:22:01;2.88;;;2.60;;
33810;SDS011;20119;48.334;16.206;2023-04-25T09:24:30;2.80;;;2.08;;
33810;SDS011;20119;48.334;16.206;2023-04-25T09:27:05;2.50;;;1.80;;
33810;SDS011;20119;48.334;16.206;2023-04-25T09:29:35;3.92;;;2.00;;
33810;SDS011;20119;48.334;16.206;2023-04-25T09:32:12;1.88;;;1.63;;
33810;SDS011;20119;48.334;16.206;2023-04-25T09:34:43;2.85;;;1.60;;
33810;SDS011;20119;48.334;16.206;2023-04-25T09:37:16;2.35;;;1.45;;
33810;SDS011;20119;48.334;16.206;2023-04-25T09:39:46;2.85;;;1.50;;
33810;SDS011;20119;48.334;16.206;2023-04-25T09:42:15;2.67;;;1.85;;
33810;SDS011;20119;48.334;16.206;2023-04-25T09:44:44;3.13;;;1.90;;
33810;SDS011;20119;48.334;16.206;2023-04-25T09:47:13;2.63;;;1.90;;
33810;SDS011;20119;48.334;16.206;2023-04-25T09:49:44;5.03;;;1.90;;
33810;SDS011;20119;48.334;16.206;2023-04-25T09:52:13;4.00;;;2.00;;
33810;SDS011;20119;48.334;16.206;2023-04-25T09:54:41;3.55;;;1.80;;
33810;SDS011;20119;48.334;16.206;2023-04-25T09:57:10;2.65;;;2.00;;
33810;SDS011;20119;48.334;16.206;2023-04-25T09:59:39;2.33;;;1.83;;
33810;SDS011;20119;48.334;16.206;2023-04-25T10:02:10;2.40;;;1.80;;
33810;SDS011;20119;48.334;16.206;2023-04-25T10:04:38;2.33;;;2.08;;
33810;SDS011;20119;48.334;16.206;2023-04-25T10:07:08;2.38;;;1.95;;
33810;SDS011;20119;48.334;16.206;2023-04-25T10:09:37;1.80;;;1.70;;
33810;SDS011;20119;48.334;16.206;2023-04-25T10:12:06;2.17;;;1.98;;
33810;SDS011;20119;48.334;16.206;2023-04-25T10:14:34;2.80;;;2.13;;
33810;SDS011;20119;48.334;16.206;2023-04-25T10:17:02;2.88;;;2.03;;
33810;SDS011;20119;48.334;16.206;2023-04-25T10:19:29;3.15;;;1.83;;
33810;SDS011;20119;48.334;16.206;2023-04-25T10:22:03;2.33;;;1.80;;
33810;SDS011;20119;48.334;16.206;2023-04-25T10:24:36;2.20;;;2.00;;
33810;SDS011;20119;48.334;16.206;2023-04-25T10:27:04;2.10;;;1.90;;
33810;SDS011;20119;48.334;16.206;2023-04-25T10:29:32;2.67;;;1.73;;
33810;SDS011;20119;48.334;16.206;2023-04-25T10:31:59;1.98;;;1.38;;
33810;SDS011;20119;48.334;16.206;2023-04-25T10:34:38;2.40;;;1.83;;
33810;SDS011;20119;48.334;16.206;2023-04-25T10:37:08;3.78;;;1.80;;
33810;SDS011;20119;48.334;16.206;2023-04-25T10:39:40;2.88;;;1.60;;
33810;SDS011;20119;48.334;16.206;2023-04-25T10:42:08;3.15;;;1.73;;
33810;SDS011;20119;48.334;16.206;2023-04-25T10:44:36;1.70;;;1.42;;
33810;SDS011;20119;48.334;16.206;2023-04-25T10:47:06;2.95;;;1.80;;
33810;SDS011;20119;48.334;16.206;2023-04-25T10:49:35;2.58;;;1.52;;
33810;SDS011;20119;48.334;16.206;2023-04-25T10:52:10;2.45;;;1.60;;
33810;SDS011;20119;48.334;16.206;2023-04-25T10:54:44;3.13;;;1.60;;
33810;SDS011;20119;48.334;16.206;2023-04-25T10:57:32;3.05;;;1.67;;
33810;SDS011;20119;48.334;16.206;2023-04-25T11:00:10;2.30;;;1.65;;
33810;SDS011;20119;48.334;16.206;2023-04-25T11:02:47;4.05;;;1.58;;
33810;SDS011;20119;48.334;16.206;2023-04-25T11:05:22;1.63;;;1.38;;
33810;SDS011;20119;48.334;16.206;2023-04-25T11:07:56;2.08;;;1.35;;
33810;SDS011;20119;48.334;16.206;2023-04-25T11:10:26;4.03;;;1.00;;
33810;SDS011;20119;48.334;16.206;2023-04-25T11:12:54;1.48;;;0.88;;
33810;SDS011;20119;48.334;16.206;2023-04-25T11:15:22;1.42;;;0.90;;
33810;SDS011;20119;48.334;16.206;2023-04-25T11:17:50;1.77;;;0.90;;
33810;SDS011;20119;48.334;16.206;2023-04-25T11:20:18;1.00;;;0.90;;
33810;SDS011;20119;48.334;16.206;2023-04-25T11:22:46;2.38;;;0.80;;
33810;SDS011;20119;48.334;16.206;2023-04-25T11:25:14;1.40;;;0.80;;
33810;SDS011;20119;48.334;16.206;2023-04-25T11:27:50;0.60;;;0.60;;
33810;SDS011;20119;48.334;16.206;2023-04-25T11:30:18;0.95;;;0.80;;
33810;SDS011;20119;48.334;16.206;2023-04-25T11:32:47;1.20;;;0.80;;
33810;SDS011;20119;48.334;16.206;2023-04-25T11:35:15;1.42;;;0.70;;
33810;SDS011;20119;48.334;16.206;2023-04-25T11:37:43;3.38;;;1.20;;
33810;SDS011;20119;48.334;16.206;2023-04-25T11:40:12;3.45;;;1.40;;
33810;SDS011;20119;48.334;16.206;2023-04-25T11:42:43;1.98;;;1.50;;
33810;SDS011;20119;48.334;16.206;2023-04-25T11:45:15;3.10;;;1.50;;
33810;SDS011;20119;48.334;16.206;2023-04-25T11:47:44;4.50;;;1.48;;
33810;SDS011;20119;48.334;16.206;2023-04-25T11:50:12;7.38;;;1.48;;
33810;SDS011;20119;48.334;16.206;2023-04-25T11:52:41;5.47;;;1.50;;
33810;SDS011;20119;48.334;16.206;2023-04-25T11:55:10;1.77;;;1.50;;
33810;SDS011;20119;48.334;16.206;2023-04-25T11:57:40;1.77;;;1.30;;
33810;SDS011;20119;48.334;16.206;2023-04-25T12:00:09;1.35;;;1.25;;
33810;SDS011;20119;48.334;16.206;2023-04-25T12:02:43;2.67;;;1.40;;
33810;SDS011;20119;48.334;16.206;2023-04-25T12:05:12;2.35;;;1.60;;
33810;SDS011;20119;48.334;16.206;2023-04-25T12:07:42;2.88;;;2.00;;
33810;SDS011;20119;48.334;16.206;2023-04-25T12:10:11;2.05;;;1.70;;
33810;SDS011;20119;48.334;16.206;2023-04-25T12:12:41;2.15;;;1.63;;
33810;SDS011;20119;48.334;16.206;2023-04-25T12:15:09;1.70;;;1.50;;
33810;SDS011;20119;48.334;16.206;2023-04-25T12:17:40;3.70;;;1.67;;
33810;SDS011;20119;48.334;16.206;2023-04-25T12:20:10;3.95;;;1.80;;
33810;SDS011;20119;48.334;16.206;2023-04-25T12:22:40;2.92;;;1.70;;
33810;SDS011;20119;48.334;16.206;2023-04-25T12:25:11;3.70;;;1.85;;
33810;SDS011;20119;48.334;16.206;2023-04-25T12:27:39;3.13;;;1.70;;
33810;SDS011;20119;48.334;16.206;2023-04-25T12:30:09;1.67;;;1.50;;
33810;SDS011;20119;48.334;16.206;2023-04-25T12:32:37;4.47;;;1.95;;
33810;SDS011;20119;48.334;16.206;2023-04-25T12:35:05;2.70;;;1.85;;
33810;SDS011;20119;48.334;16.206;2023-04-25T12:37:34;3.97;;;1.60;;
33810;SDS011;20119;48.334;16.206;2023-04-25T12:40:01;2.13;;;1.60;;
33810;SDS011;20119;48.334;16.206;2023-04-25T12:42:31;5.25;;;1.90;;
33810;SDS011;20119;48.334;16.206;2023-04-25T12:44:59;2.10;;;1.77;;
33810;SDS011;20119;48.334;16.206;2023-04-25T12:47:27;1.90;;;1.67;;
33810;SDS011;20119;48.334;16.206;2023-04-25T12:49:55;3.75;;;1.52;;
33810;SDS011;20119;48.334;16.206;2023-04-25T12:52:23;2.05;;;1.45;;
33810;SDS011;20119;48.334;16.206;2023-04-25T12:54:51;1.70;;;1.60;;
33810;SDS011;20119;48.334;16.206;2023-04-25T12:57:19;2.42;;;1.52;;
33810;SDS011;20119;48.334;16.206;2023-04-25T12:59:46;1.60;;;1.40;;
33810;SDS011;20119;48.334;16.206;2023-04-25T13:02:13;2.45;;;1.40;;
33810;SDS011;20119;48.334;16.206;2023-04-25T13:04:41;2.42;;;1.15;;
33810;SDS011;20119;48.334;16.206;2023-04-25T13:07:08;1.58;;;1.17;;
33810;SDS011;20119;48.334;16.206;2023-04-25T13:09:36;2.20;;;0.95;;
33810;SDS011;20119;48.334;16.206;2023-04-25T13:12:05;1.83;;;0.90;;
33810;SDS011;20119;48.334;16.206;2023-04-25T13:14:32;0.88;;;0.80;;
33810;SDS011;20119;48.334;16.206;2023-04-25T13:17:01;1.10;;;1.00;;
33810;SDS011;20119;48.334;16.206;2023-04-25T13:19:28;1.67;;;0.90;;
33810;SDS011;20119;48.334;16.206;2023-04-25T13:21:56;2.42;;;1.02;;
33810;SDS011;20119;48.334;16.206;2023-04-25T13:24:24;1.20;;;1.00;;
33810;SDS011;20119;48.334;16.206;2023-04-25T13:26:52;1.10;;;0.88;;
33810;SDS011;20119;48.334;16.206;2023-04-25T13:29:22;1.45;;;0.80;;
33810;SDS011;20119;48.334;16.206;2023-04-25T13:31:49;2.47;;;1.02;;
33810;SDS011;20119;48.334;16.206;2023-04-25T13:34:16;1.48;;;0.90;;
33810;SDS011;20119;48.334;16.206;2023-04-25T13:36:44;1.33;;;0.93;;
33810;SDS011;20119;48.334;16.206;2023-04-25T13:39:11;2.97;;;1.10;;
33810;SDS011;20119;48.334;16.206;2023-04-25T13:41:39;1.83;;;1.17;;
33810;SDS011;20119;48.334;16.206;2023-04-25T13:44:06;1.65;;;1.10;;
33810;SDS011;20119;48.334;16.206;2023-04-25T13:46:36;2.13;;;1.33;;
33810;SDS011;20119;48.334;16.206;2023-04-25T13:49:03;1.87;;;1.40;;
33810;SDS011;20119;48.334;16.206;2023-04-25T13:51:31;5.05;;;1.30;;
33810;SDS011;20119;48.334;16.206;2023-04-25T13:53:59;2.10;;;1.27;;
33810;SDS011;20119;48.334;16.206;2023-04-25T13:56:26;3.13;;;1.48;;
33810;SDS011;20119;48.334;16.206;2023-04-25T13:58:54;2.28;;;1.30;;
33810;SDS011;20119;48.334;16.206;2023-04-25T14:01:23;1.77;;;1.30;;
33810;SDS011;20119;48.334;16.206;2023-04-25T14:03:53;1.65;;;1.30;;
33810;SDS011;20119;48.334;16.206;2023-04-25T14:06:20;4.78;;;1.70;;
33810;SDS011;20119;48.334;16.206;2023-04-25T14:08:49;5.80;;;1.70;;
33810;SDS011;20119;48.334;16.206;2023-04-25T14:11:17;2.17;;;1.30;;
33810;SDS011;20119;48.334;16.206;2023-04-25T14:13:45;2.67;;;1.40;;
33810;SDS011;20119;48.334;16.206;2023-04-25T14:16:12;1.58;;;1.45;;
33810;SDS011;20119;48.334;16.206;2023-04-25T14:18:40;1.40;;;1.30;;
33810;SDS011;20119;48.334;16.206;2023-04-25T14:21:08;1.63;;;1.50;;
33810;SDS011;20119;48.334;16.206;2023-04-25T14:23:36;2.83;;;1.50;;
33810;SDS011;20119;48.334;16.206;2023-04-25T14:26:03;3.33;;;1.42;;
33810;SDS011;20119;48.334;16.206;2023-04-25T14:28:31;2.72;;;1.48;;
33810;SDS011;20119;48.334;16.206;2023-04-25T14:30:59;1.98;;;1.50;;
33810;SDS011;20119;48.334;16.206;2023-04-25T14:33:28;2.75;;;1.77;;
33810;SDS011;20119;48.334;16.206;2023-04-25T14:35:56;2.88;;;1.80;;
33810;SDS011;20119;48.334;16.206;2023-04-25T14:38:25;2.42;;;1.88;;
33810;SDS011;20119;48.334;16.206;2023-04-25T14:40:53;3.42;;;1.95;;